createdAt,value
2023-08-06T00:02:14.782Z,4.50
2023-08-06T00:22:22.003Z,3.80
2023-08-06T00:32:25.094Z,3.92
2023-08-06T00:42:29.982Z,4.30
2023-08-06T00:52:33.186Z,4.22
2023-08-06T01:02:37.884Z,3.55
2023-08-06T01:12:48.239Z,4.97
2023-08-06T01:22:52.614Z,3.65
2023-08-06T01:33:01.180Z,3.88
2023-08-06T01:43:05.719Z,4.20
2023-08-06T01:53:08.739Z,4.07
2023-08-06T02:03:13.109Z,4.57
2023-08-06T02:13:17.142Z,4.32
2023-08-06T02:23:21.671Z,4.70
2023-08-06T02:43:29.012Z,5.80
2023-08-06T03:03:40.881Z,5.60
2023-08-06T03:13:44.953Z,4.55
2023-08-06T03:23:50.699Z,4.33
2023-08-06T03:33:57.574Z,5.97
2023-08-06T03:44:05.144Z,4.95
2023-08-06T03:54:08.543Z,3.97
2023-08-06T04:04:13.977Z,4.50
2023-08-06T04:14:17.076Z,4.82
2023-08-06T04:24:21.570Z,5.68
2023-08-06T04:44:29.819Z,6.15
2023-08-06T05:04:37.211Z,6.93
2023-08-06T05:24:44.379Z,6.95
2023-08-06T05:34:47.364Z,6.75
2023-08-06T05:44:51.713Z,6.97
2023-08-06T06:04:58.948Z,5.20
2023-08-06T06:25:07.941Z,5.63
2023-08-06T06:35:11.363Z,4.47
2023-08-06T06:45:16.007Z,1.55
2023-08-06T06:55:19.011Z,1.10
2023-08-06T07:05:23.405Z,1.50
2023-08-06T07:15:26.453Z,2.33
2023-08-06T07:25:30.937Z,3.20
2023-08-06T07:35:34.039Z,4.50
2023-08-06T07:45:38.663Z,4.38
2023-08-06T08:05:47.588Z,5.70
2023-08-06T08:15:50.624Z,5.80
2023-08-06T08:25:55.043Z,4.38
2023-08-06T08:35:58.078Z,4.05
2023-08-06T08:46:06.326Z,3.80
2023-08-06T08:56:09.399Z,4.57
2023-08-06T09:06:15.014Z,4.30
2023-08-06T09:16:18.126Z,4.45
2023-08-06T09:26:22.911Z,4.43
2023-08-06T09:36:27.077Z,5.22
2023-08-06T09:46:34.542Z,5.55
2023-08-06T09:56:38.917Z,4.38
2023-08-06T10:06:44.081Z,5.90
2023-08-06T10:16:47.852Z,4.63
2023-08-06T10:26:52.231Z,3.80
2023-08-06T10:36:57.672Z,3.70
2023-08-06T10:47:28.474Z,4.82
2023-08-06T10:57:31.497Z,3.78
2023-08-06T11:07:36.076Z,4.50
2023-08-06T11:17:39.363Z,5.05
2023-08-06T11:27:43.855Z,4.80
2023-08-06T11:47:54.538Z,4.25
2023-08-06T11:57:57.973Z,5.07
2023-08-06T12:08:04.596Z,6.30
2023-08-06T12:18:09.396Z,5.70
2023-08-06T12:28:15.920Z,2.75
2023-08-06T12:38:21.377Z,2.78
2023-08-06T12:48:31.173Z,2.08
2023-08-06T12:58:49.180Z,2.08
2023-08-06T13:08:54.292Z,2.20
2023-08-06T13:18:57.750Z,2.55
2023-08-06T13:29:08.781Z,2.03
2023-08-06T13:49:47.088Z,2.15
2023-08-06T13:59:53.328Z,2.60
2023-08-06T14:10:03.710Z,2.55
2023-08-06T14:20:13.120Z,1.77
2023-08-06T14:30:20.239Z,1.75
2023-08-06T14:40:29.479Z,1.90
2023-08-06T14:50:36.963Z,1.40
2023-08-06T15:00:43.968Z,1.23
2023-08-06T15:10:54.015Z,1.10
2023-08-06T15:21:01.212Z,1.20
2023-08-06T15:31:11.709Z,1.40
2023-08-06T15:41:18.131Z,1.10
2023-08-06T15:51:31.589Z,1.58
2023-08-06T16:01:34.634Z,1.13
2023-08-06T16:11:42.073Z,1.10
2023-08-06T16:21:57.743Z,1.33
2023-08-06T16:32:08.257Z,1.90
2023-08-06T16:42:11.241Z,1.08
2023-08-06T16:52:15.725Z,2.00
2023-08-06T17:02:24.786Z,1.45
2023-08-06T17:12:31.292Z,1.85
2023-08-06T17:22:43.912Z,2.00
2023-08-06T17:32:49.212Z,2.40
2023-08-06T17:42:55.250Z,2.75
2023-08-06T17:53:01.920Z,2.17
2023-08-06T18:03:12.625Z,1.85
2023-08-06T18:13:18.137Z,2.08
2023-08-06T18:23:29.988Z,1.90
2023-08-06T18:33:35.177Z,1.63
2023-08-06T18:43:41.729Z,2.17
2023-08-06T18:53:55.653Z,2.30
2023-08-06T19:03:58.751Z,2.17
2023-08-06T19:14:03.206Z,2.08
2023-08-06T19:24:06.561Z,2.08
2023-08-06T19:34:11.097Z,1.80
2023-08-06T19:44:14.215Z,1.45
2023-08-06T19:54:19.223Z,1.65
2023-08-06T20:04:22.284Z,1.98
2023-08-06T20:14:26.740Z,2.38
2023-08-06T20:24:29.832Z,2.38
2023-08-06T20:34:34.349Z,2.40
2023-08-06T20:44:38.297Z,2.70
2023-08-06T20:54:42.631Z,2.77
2023-08-06T21:04:45.742Z,2.45
2023-08-06T21:14:50.132Z,2.55
2023-08-06T21:24:53.224Z,4.03
2023-08-06T21:34:58.014Z,3.50
2023-08-06T21:45:02.980Z,4.20
2023-08-06T21:55:08.211Z,4.00
2023-08-06T22:05:11.443Z,3.28
2023-08-06T22:15:15.980Z,3.28
2023-08-06T22:25:19.331Z,3.25
2023-08-06T22:35:23.903Z,2.83
2023-08-06T22:45:26.912Z,2.72
2023-08-06T22:56:01.567Z,3.08
2023-08-06T23:05:54.266Z,2.40
2023-08-06T23:15:58.752Z,3.40
2023-08-06T23:26:01.786Z,4.20
2023-08-06T23:36:06.512Z,3.55
2023-08-06T23:46:09.595Z,3.72
2023-08-06T23:56:13.956Z,3.67
